sensor_id;sensor_type;location;lat;lon;timestamp;P1;durP1;ratioP1;P2;durP2;ratioP2
71176;SDS011;58877;51.992;4.504;2024-02-26T00:01:41;3.67;;;3.67;;
71176;SDS011;58877;51.992;4.504;2024-02-26T00:04:11;3.90;;;3.90;;
71176;SDS011;58877;51.992;4.504;2024-02-26T00:06:38;3.93;;;3.93;;
71176;SDS011;58877;51.992;4.504;2024-02-26T00:09:06;3.95;;;3.95;;
71176;SDS011;58877;51.992;4.504;2024-02-26T00:11:37;3.72;;;3.72;;
71176;SDS011;58877;51.992;4.504;2024-02-26T00:14:07;3.79;;;3.79;;
71176;SDS011;58877;51.992;4.504;2024-02-26T00:16:32;3.60;;;3.60;;
71176;SDS011;58877;51.992;4.504;2024-02-26T00:18:58;4.15;;;4.15;;
71176;SDS011;58877;51.992;4.504;2024-02-26T00:21:24;3.79;;;3.79;;
71176;SDS011;58877;51.992;4.504;2024-02-26T00:23:49;3.62;;;3.62;;
71176;SDS011;58877;51.992;4.504;2024-02-26T00:26:18;3.69;;;3.69;;
71176;SDS011;58877;51.992;4.504;2024-02-26T00:28:44;3.64;;;3.64;;
71176;SDS011;58877;51.992;4.504;2024-02-26T00:31:10;3.36;;;3.36;;
71176;SDS011;58877;51.992;4.504;2024-02-26T00:33:36;3.38;;;3.38;;
71176;SDS011;58877;51.992;4.504;2024-02-26T00:36:02;3.74;;;3.74;;
71176;SDS011;58877;51.992;4.504;2024-02-26T00:38:28;3.78;;;3.78;;
71176;SDS011;58877;51.992;4.504;2024-02-26T00:40:54;3.58;;;3.58;;
71176;SDS011;58877;51.992;4.504;2024-02-26T00:43:19;3.41;;;3.41;;
71176;SDS011;58877;51.992;4.504;2024-02-26T00:45:45;3.82;;;3.82;;
71176;SDS011;58877;51.992;4.504;2024-02-26T00:48:12;3.55;;;3.55;;
71176;SDS011;58877;51.992;4.504;2024-02-26T00:50:39;3.79;;;3.79;;
71176;SDS011;58877;51.992;4.504;2024-02-26T00:53:05;3.74;;;3.74;;
71176;SDS011;58877;51.992;4.504;2024-02-26T00:55:30;3.79;;;3.79;;
71176;SDS011;58877;51.992;4.504;2024-02-26T00:57:56;3.69;;;3.69;;
71176;SDS011;58877;51.992;4.504;2024-02-26T01:00:22;3.46;;;3.46;;
71176;SDS011;58877;51.992;4.504;2024-02-26T01:02:47;3.66;;;3.66;;
71176;SDS011;58877;51.992;4.504;2024-02-26T01:05:14;3.43;;;3.43;;
71176;SDS011;58877;51.992;4.504;2024-02-26T01:07:43;3.60;;;3.60;;
71176;SDS011;58877;51.992;4.504;2024-02-26T01:10:09;3.33;;;3.33;;
71176;SDS011;58877;51.992;4.504;2024-02-26T01:12:35;3.62;;;3.62;;
71176;SDS011;58877;51.992;4.504;2024-02-26T01:15:02;3.40;;;3.40;;
71176;SDS011;58877;51.992;4.504;2024-02-26T01:17:30;3.73;;;3.73;;
71176;SDS011;58877;51.992;4.504;2024-02-26T01:19:56;3.74;;;3.74;;
71176;SDS011;58877;51.992;4.504;2024-02-26T01:22:22;4.24;;;4.24;;
71176;SDS011;58877;51.992;4.504;2024-02-26T01:24:47;3.93;;;3.93;;
71176;SDS011;58877;51.992;4.504;2024-02-26T01:27:13;3.67;;;3.67;;
71176;SDS011;58877;51.992;4.504;2024-02-26T01:29:42;3.97;;;3.97;;
71176;SDS011;58877;51.992;4.504;2024-02-26T01:32:07;3.64;;;3.64;;
71176;SDS011;58877;51.992;4.504;2024-02-26T01:34:33;4.04;;;4.04;;
71176;SDS011;58877;51.992;4.504;2024-02-26T01:36:59;4.00;;;4.00;;
71176;SDS011;58877;51.992;4.504;2024-02-26T01:39:26;4.21;;;4.21;;
71176;SDS011;58877;51.992;4.504;2024-02-26T01:41:52;4.30;;;4.30;;
71176;SDS011;58877;51.992;4.504;2024-02-26T01:44:18;4.38;;;4.38;;
71176;SDS011;58877;51.992;4.504;2024-02-26T01:46:48;4.47;;;4.47;;
71176;SDS011;58877;51.992;4.504;2024-02-26T01:49:17;4.45;;;4.45;;
71176;SDS011;58877;51.992;4.504;2024-02-26T01:51:43;3.97;;;3.97;;
71176;SDS011;58877;51.992;4.504;2024-02-26T01:54:09;4.18;;;4.18;;
71176;SDS011;58877;51.992;4.504;2024-02-26T01:56:36;4.50;;;4.50;;
71176;SDS011;58877;51.992;4.504;2024-02-26T01:59:06;4.48;;;4.47;;
71176;SDS011;58877;51.992;4.504;2024-02-26T02:01:33;4.27;;;4.24;;
71176;SDS011;58877;51.992;4.504;2024-02-26T02:04:00;4.26;;;4.24;;
71176;SDS011;58877;51.992;4.504;2024-02-26T02:06:26;4.14;;;4.14;;
71176;SDS011;58877;51.992;4.504;2024-02-26T02:08:56;4.55;;;4.55;;
71176;SDS011;58877;51.992;4.504;2024-02-26T02:11:23;4.70;;;4.70;;
71176;SDS011;58877;51.992;4.504;2024-02-26T02:13:49;4.86;;;4.85;;
71176;SDS011;58877;51.992;4.504;2024-02-26T02:16:15;4.84;;;4.84;;
71176;SDS011;58877;51.992;4.504;2024-02-26T02:18:41;4.63;;;4.63;;
71176;SDS011;58877;51.992;4.504;2024-02-26T02:21:09;4.91;;;4.91;;
71176;SDS011;58877;51.992;4.504;2024-02-26T02:23:35;4.78;;;4.78;;
71176;SDS011;58877;51.992;4.504;2024-02-26T02:26:00;4.83;;;4.83;;
71176;SDS011;58877;51.992;4.504;2024-02-26T02:28:26;4.85;;;4.85;;
71176;SDS011;58877;51.992;4.504;2024-02-26T02:30:56;4.93;;;4.93;;
71176;SDS011;58877;51.992;4.504;2024-02-26T02:33:22;5.25;;;5.25;;
71176;SDS011;58877;51.992;4.504;2024-02-26T02:35:49;4.75;;;4.75;;
71176;SDS011;58877;51.992;4.504;2024-02-26T02:38:16;4.78;;;4.78;;
71176;SDS011;58877;51.992;4.504;2024-02-26T02:40:42;5.19;;;5.19;;
71176;SDS011;58877;51.992;4.504;2024-02-26T02:43:07;5.39;;;5.39;;
71176;SDS011;58877;51.992;4.504;2024-02-26T02:45:33;5.59;;;5.59;;
71176;SDS011;58877;51.992;4.504;2024-02-26T02:48:02;5.65;;;5.65;;
71176;SDS011;58877;51.992;4.504;2024-02-26T02:50:27;5.55;;;5.55;;
71176;SDS011;58877;51.992;4.504;2024-02-26T02:52:54;6.03;;;6.03;;
71176;SDS011;58877;51.992;4.504;2024-02-26T02:55:20;5.87;;;5.87;;
71176;SDS011;58877;51.992;4.504;2024-02-26T02:57:45;5.80;;;5.80;;
71176;SDS011;58877;51.992;4.504;2024-02-26T03:00:11;5.63;;;5.62;;
71176;SDS011;58877;51.992;4.504;2024-02-26T03:02:37;5.41;;;5.41;;
71176;SDS011;58877;51.992;4.504;2024-02-26T03:05:03;5.60;;;5.60;;
71176;SDS011;58877;51.992;4.504;2024-02-26T03:07:30;5.75;;;5.75;;
71176;SDS011;58877;51.992;4.504;2024-02-26T03:09:55;6.11;;;6.11;;
71176;SDS011;58877;51.992;4.504;2024-02-26T03:12:21;5.94;;;5.94;;
71176;SDS011;58877;51.992;4.504;2024-02-26T03:14:47;6.28;;;6.28;;
71176;SDS011;58877;51.992;4.504;2024-02-26T03:17:13;6.14;;;6.14;;
71176;SDS011;58877;51.992;4.504;2024-02-26T03:19:38;6.27;;;6.27;;
71176;SDS011;58877;51.992;4.504;2024-02-26T03:22:04;5.84;;;5.84;;
71176;SDS011;58877;51.992;4.504;2024-02-26T03:24:30;5.86;;;5.86;;
71176;SDS011;58877;51.992;4.504;2024-02-26T03:26:55;6.08;;;6.08;;
71176;SDS011;58877;51.992;4.504;2024-02-26T03:29:21;6.35;;;6.33;;
71176;SDS011;58877;51.992;4.504;2024-02-26T03:31:47;6.25;;;6.22;;
71176;SDS011;58877;51.992;4.504;2024-02-26T03:34:12;6.30;;;6.19;;
71176;SDS011;58877;51.992;4.504;2024-02-26T03:36:40;6.22;;;6.21;;
71176;SDS011;58877;51.992;4.504;2024-02-26T03:39:06;6.27;;;6.27;;
71176;SDS011;58877;51.992;4.504;2024-02-26T03:41:35;6.11;;;6.11;;
71176;SDS011;58877;51.992;4.504;2024-02-26T03:44:01;5.76;;;5.76;;
71176;SDS011;58877;51.992;4.504;2024-02-26T03:46:28;6.73;;;6.73;;
71176;SDS011;58877;51.992;4.504;2024-02-26T03:48:53;6.55;;;6.55;;
71176;SDS011;58877;51.992;4.504;2024-02-26T03:51:19;6.76;;;6.76;;
71176;SDS011;58877;51.992;4.504;2024-02-26T03:53:45;6.42;;;6.42;;
71176;SDS011;58877;51.992;4.504;2024-02-26T03:56:11;6.14;;;6.14;;
71176;SDS011;58877;51.992;4.504;2024-02-26T03:58:40;6.24;;;6.24;;
71176;SDS011;58877;51.992;4.504;2024-02-26T04:01:07;6.25;;;6.21;;
71176;SDS011;58877;51.992;4.504;2024-02-26T04:03:34;6.29;;;6.18;;
71176;SDS011;58877;51.992;4.504;2024-02-26T04:06:01;6.60;;;6.55;;
71176;SDS011;58877;51.992;4.504;2024-02-26T04:08:28;6.81;;;6.73;;
71176;SDS011;58877;51.992;4.504;2024-02-26T04:10:53;6.77;;;6.76;;
71176;SDS011;58877;51.992;4.504;2024-02-26T04:13:19;6.81;;;6.80;;
71176;SDS011;58877;51.992;4.504;2024-02-26T04:15:45;6.71;;;6.70;;
71176;SDS011;58877;51.992;4.504;2024-02-26T04:18:12;7.30;;;7.20;;
71176;SDS011;58877;51.992;4.504;2024-02-26T04:20:39;6.98;;;6.93;;
71176;SDS011;58877;51.992;4.504;2024-02-26T04:23:08;6.97;;;6.97;;
71176;SDS011;58877;51.992;4.504;2024-02-26T04:25:34;7.24;;;7.24;;
71176;SDS011;58877;51.992;4.504;2024-02-26T04:28:00;7.54;;;7.52;;
71176;SDS011;58877;51.992;4.504;2024-02-26T04:30:25;7.27;;;7.22;;
71176;SDS011;58877;51.992;4.504;2024-02-26T04:32:51;7.70;;;7.63;;
71176;SDS011;58877;51.992;4.504;2024-02-26T04:35:20;7.51;;;7.47;;
71176;SDS011;58877;51.992;4.504;2024-02-26T04:37:47;8.06;;;7.93;;
71176;SDS011;58877;51.992;4.504;2024-02-26T04:40:13;8.41;;;8.32;;
71176;SDS011;58877;51.992;4.504;2024-02-26T04:42:39;8.40;;;8.22;;
71176;SDS011;58877;51.992;4.504;2024-02-26T04:45:05;8.63;;;8.61;;
71176;SDS011;58877;51.992;4.504;2024-02-26T04:47:32;8.23;;;8.19;;
71176;SDS011;58877;51.992;4.504;2024-02-26T04:49:57;8.57;;;8.42;;
71176;SDS011;58877;51.992;4.504;2024-02-26T04:52:23;8.46;;;8.34;;
71176;SDS011;58877;51.992;4.504;2024-02-26T04:54:52;9.14;;;9.11;;
71176;SDS011;58877;51.992;4.504;2024-02-26T04:57:18;8.23;;;8.11;;
71176;SDS011;58877;51.992;4.504;2024-02-26T04:59:44;8.80;;;8.79;;
71176;SDS011;58877;51.992;4.504;2024-02-26T05:02:11;7.86;;;7.86;;
71176;SDS011;58877;51.992;4.504;2024-02-26T05:04:39;8.54;;;8.50;;
71176;SDS011;58877;51.992;4.504;2024-02-26T05:07:05;8.71;;;8.50;;
71176;SDS011;58877;51.992;4.504;2024-02-26T05:09:31;8.68;;;8.65;;
71176;SDS011;58877;51.992;4.504;2024-02-26T05:11:57;8.19;;;8.10;;
71176;SDS011;58877;51.992;4.504;2024-02-26T05:14:22;8.03;;;8.02;;
71176;SDS011;58877;51.992;4.504;2024-02-26T05:16:48;8.47;;;8.46;;
71176;SDS011;58877;51.992;4.504;2024-02-26T05:19:14;7.93;;;7.93;;
71176;SDS011;58877;51.992;4.504;2024-02-26T05:21:39;8.32;;;8.23;;
71176;SDS011;58877;51.992;4.504;2024-02-26T05:24:06;8.09;;;8.08;;
71176;SDS011;58877;51.992;4.504;2024-02-26T05:26:31;8.37;;;8.33;;
71176;SDS011;58877;51.992;4.504;2024-02-26T05:28:57;8.80;;;8.69;;
71176;SDS011;58877;51.992;4.504;2024-02-26T05:31:25;9.03;;;8.96;;
71176;SDS011;58877;51.992;4.504;2024-02-26T05:33:51;9.17;;;9.12;;
71176;SDS011;58877;51.992;4.504;2024-02-26T05:36:18;9.22;;;9.12;;
71176;SDS011;58877;51.992;4.504;2024-02-26T05:38:44;8.88;;;8.71;;
71176;SDS011;58877;51.992;4.504;2024-02-26T05:41:11;8.47;;;8.42;;
71176;SDS011;58877;51.992;4.504;2024-02-26T05:43:37;8.76;;;8.71;;
71176;SDS011;58877;51.992;4.504;2024-02-26T05:46:03;9.54;;;9.38;;
71176;SDS011;58877;51.992;4.504;2024-02-26T05:48:28;9.47;;;9.37;;
71176;SDS011;58877;51.992;4.504;2024-02-26T05:50:54;9.04;;;8.98;;
71176;SDS011;58877;51.992;4.504;2024-02-26T05:53:20;9.22;;;9.04;;
71176;SDS011;58877;51.992;4.504;2024-02-26T05:55:46;9.33;;;9.07;;
71176;SDS011;58877;51.992;4.504;2024-02-26T05:58:11;9.17;;;8.93;;
71176;SDS011;58877;51.992;4.504;2024-02-26T06:00:39;8.88;;;8.65;;
71176;SDS011;58877;51.992;4.504;2024-02-26T06:03:05;9.72;;;9.50;;
71176;SDS011;58877;51.992;4.504;2024-02-26T06:05:34;9.45;;;9.27;;
71176;SDS011;58877;51.992;4.504;2024-02-26T06:08:00;9.16;;;9.04;;
71176;SDS011;58877;51.992;4.504;2024-02-26T06:10:26;9.77;;;9.59;;
71176;SDS011;58877;51.992;4.504;2024-02-26T06:12:51;9.67;;;9.48;;
71176;SDS011;58877;51.992;4.504;2024-02-26T06:15:17;9.65;;;9.54;;
71176;SDS011;58877;51.992;4.504;2024-02-26T06:17:42;9.34;;;9.21;;
71176;SDS011;58877;51.992;4.504;2024-02-26T06:20:08;10.50;;;10.28;;
71176;SDS011;58877;51.992;4.504;2024-02-26T06:22:38;10.30;;;10.10;;
71176;SDS011;58877;51.992;4.504;2024-02-26T06:25:07;10.61;;;10.35;;
71176;SDS011;58877;51.992;4.504;2024-02-26T06:27:33;11.62;;;11.28;;
71176;SDS011;58877;51.992;4.504;2024-02-26T06:30:00;11.13;;;10.79;;
71176;SDS011;58877;51.992;4.504;2024-02-26T06:32:26;11.08;;;10.86;;
71176;SDS011;58877;51.992;4.504;2024-02-26T06:34:54;10.75;;;10.58;;
71176;SDS011;58877;51.992;4.504;2024-02-26T06:37:20;11.54;;;11.36;;
71176;SDS011;58877;51.992;4.504;2024-02-26T06:39:46;11.90;;;11.73;;
71176;SDS011;58877;51.992;4.504;2024-02-26T06:42:11;12.69;;;12.50;;
71176;SDS011;58877;51.992;4.504;2024-02-26T06:44:37;11.75;;;11.61;;
71176;SDS011;58877;51.992;4.504;2024-02-26T06:47:02;12.39;;;12.22;;
71176;SDS011;58877;51.992;4.504;2024-02-26T06:49:29;12.85;;;12.66;;
71176;SDS011;58877;51.992;4.504;2024-02-26T06:51:55;13.10;;;12.84;;
71176;SDS011;58877;51.992;4.504;2024-02-26T06:54:20;13.21;;;13.04;;
71176;SDS011;58877;51.992;4.504;2024-02-26T06:56:46;12.63;;;12.48;;
71176;SDS011;58877;51.992;4.504;2024-02-26T06:59:12;13.40;;;13.22;;
71176;SDS011;58877;51.992;4.504;2024-02-26T07:01:40;13.56;;;13.43;;
71176;SDS011;58877;51.992;4.504;2024-02-26T07:04:07;14.30;;;14.22;;
71176;SDS011;58877;51.992;4.504;2024-02-26T07:06:32;14.06;;;13.91;;
71176;SDS011;58877;51.992;4.504;2024-02-26T07:08:58;13.76;;;13.64;;
71176;SDS011;58877;51.992;4.504;2024-02-26T07:11:24;13.78;;;13.69;;
71176;SDS011;58877;51.992;4.504;2024-02-26T07:13:50;13.89;;;13.77;;
71176;SDS011;58877;51.992;4.504;2024-02-26T07:16:16;14.29;;;14.03;;
71176;SDS011;58877;51.992;4.504;2024-02-26T07:18:41;14.94;;;14.59;;
71176;SDS011;58877;51.992;4.504;2024-02-26T07:21:08;14.79;;;14.58;;
71176;SDS011;58877;51.992;4.504;2024-02-26T07:23:34;14.31;;;14.20;;
71176;SDS011;58877;51.992;4.504;2024-02-26T07:26:00;14.05;;;13.97;;
71176;SDS011;58877;51.992;4.504;2024-02-26T07:28:26;15.11;;;14.85;;
71176;SDS011;58877;51.992;4.504;2024-02-26T07:30:52;15.08;;;14.80;;
71176;SDS011;58877;51.992;4.504;2024-02-26T07:33:17;15.34;;;15.08;;
71176;SDS011;58877;51.992;4.504;2024-02-26T07:35:43;15.06;;;14.84;;
71176;SDS011;58877;51.992;4.504;2024-02-26T07:38:09;15.46;;;15.21;;
71176;SDS011;58877;51.992;4.504;2024-02-26T07:40:35;15.49;;;15.31;;
71176;SDS011;58877;51.992;4.504;2024-02-26T07:43:01;14.99;;;14.78;;
71176;SDS011;58877;51.992;4.504;2024-02-26T07:45:29;15.26;;;15.08;;
71176;SDS011;58877;51.992;4.504;2024-02-26T07:47:54;14.18;;;13.99;;
71176;SDS011;58877;51.992;4.504;2024-02-26T07:50:20;14.50;;;14.20;;
71176;SDS011;58877;51.992;4.504;2024-02-26T07:52:48;13.87;;;13.83;;
71176;SDS011;58877;51.992;4.504;2024-02-26T07:55:16;13.51;;;13.41;;
71176;SDS011;58877;51.992;4.504;2024-02-26T07:57:45;12.13;;;12.03;;
71176;SDS011;58877;51.992;4.504;2024-02-26T08:00:23;13.06;;;12.89;;
71176;SDS011;58877;51.992;4.504;2024-02-26T08:02:49;12.46;;;12.33;;
71176;SDS011;58877;51.992;4.504;2024-02-26T08:05:14;12.14;;;12.09;;
71176;SDS011;58877;51.992;4.504;2024-02-26T08:07:40;12.11;;;12.04;;
71176;SDS011;58877;51.992;4.504;2024-02-26T08:10:06;11.11;;;11.00;;
71176;SDS011;58877;51.992;4.504;2024-02-26T08:12:32;12.25;;;11.98;;
71176;SDS011;58877;51.992;4.504;2024-02-26T08:15:04;10.93;;;10.79;;
71176;SDS011;58877;51.992;4.504;2024-02-26T08:17:30;9.96;;;9.92;;
71176;SDS011;58877;51.992;4.504;2024-02-26T08:19:55;10.62;;;10.46;;
71176;SDS011;58877;51.992;4.504;2024-02-26T08:22:22;10.02;;;9.93;;
71176;SDS011;58877;51.992;4.504;2024-02-26T08:24:54;9.55;;;9.55;;
71176;SDS011;58877;51.992;4.504;2024-02-26T08:30:13;9.28;;;9.19;;
71176;SDS011;58877;51.992;4.504;2024-02-26T08:35:26;10.08;;;9.97;;
71176;SDS011;58877;51.992;4.504;2024-02-26T08:38:08;9.13;;;9.03;;
71176;SDS011;58877;51.992;4.504;2024-02-26T08:40:37;9.20;;;9.20;;
71176;SDS011;58877;51.992;4.504;2024-02-26T08:43:08;8.43;;;8.41;;
71176;SDS011;58877;51.992;4.504;2024-02-26T08:45:45;8.02;;;8.02;;
71176;SDS011;58877;51.992;4.504;2024-02-26T08:48:10;7.15;;;7.15;;
71176;SDS011;58877;51.992;4.504;2024-02-26T08:50:36;6.93;;;6.93;;
71176;SDS011;58877;51.992;4.504;2024-02-26T08:53:02;6.65;;;6.65;;
71176;SDS011;58877;51.992;4.504;2024-02-26T08:55:29;6.52;;;6.49;;
71176;SDS011;58877;51.992;4.504;2024-02-26T08:57:57;6.55;;;6.51;;
71176;SDS011;58877;51.992;4.504;2024-02-26T09:03:24;6.14;;;6.14;;
71176;SDS011;58877;51.992;4.504;2024-02-26T09:05:52;6.53;;;6.53;;
71176;SDS011;58877;51.992;4.504;2024-02-26T09:11:26;6.47;;;6.47;;
71176;SDS011;58877;51.992;4.504;2024-02-26T09:13:56;6.15;;;6.15;;
71176;SDS011;58877;51.992;4.504;2024-02-26T09:16:35;5.80;;;5.80;;
71176;SDS011;58877;51.992;4.504;2024-02-26T09:22:27;5.74;;;5.74;;
71176;SDS011;58877;51.992;4.504;2024-02-26T09:25:11;5.46;;;5.45;;
71176;SDS011;58877;51.992;4.504;2024-02-26T09:31:07;5.21;;;5.16;;
71176;SDS011;58877;51.992;4.504;2024-02-26T09:33:49;5.12;;;5.03;;
71176;SDS011;58877;51.992;4.504;2024-02-26T09:36:18;4.96;;;4.91;;
71176;SDS011;58877;51.992;4.504;2024-02-26T09:38:57;5.07;;;5.01;;
71176;SDS011;58877;51.992;4.504;2024-02-26T09:41:36;5.13;;;5.11;;
71176;SDS011;58877;51.992;4.504;2024-02-26T09:44:21;5.34;;;5.25;;
71176;SDS011;58877;51.992;4.504;2024-02-26T09:46:58;5.00;;;4.96;;
71176;SDS011;58877;51.992;4.504;2024-02-26T09:49:48;5.06;;;5.06;;
71176;SDS011;58877;51.992;4.504;2024-02-26T09:52:27;4.72;;;4.72;;
71176;SDS011;58877;51.992;4.504;2024-02-26T09:55:01;4.62;;;4.58;;
71176;SDS011;58877;51.992;4.504;2024-02-26T09:57:42;4.95;;;4.85;;
71176;SDS011;58877;51.992;4.504;2024-02-26T10:01:15;4.86;;;4.86;;
71176;SDS011;58877;51.992;4.504;2024-02-26T10:04:01;5.09;;;5.08;;
71176;SDS011;58877;51.992;4.504;2024-02-26T10:06:49;4.85;;;4.76;;
71176;SDS011;58877;51.992;4.504;2024-02-26T10:15:19;4.97;;;4.94;;
71176;SDS011;58877;51.992;4.504;2024-02-26T10:18:07;5.10;;;5.03;;
71176;SDS011;58877;51.992;4.504;2024-02-26T10:20:59;5.14;;;5.07;;
71176;SDS011;58877;51.992;4.504;2024-02-26T10:23:55;5.36;;;5.36;;
71176;SDS011;58877;51.992;4.504;2024-02-26T10:26:57;5.03;;;5.03;;
71176;SDS011;58877;51.992;4.504;2024-02-26T10:32:44;5.09;;;5.03;;
71176;SDS011;58877;51.992;4.504;2024-02-26T10:44:56;5.32;;;5.28;;
71176;SDS011;58877;51.992;4.504;2024-02-26T10:47:50;5.42;;;5.42;;
71176;SDS011;58877;51.992;4.504;2024-02-26T10:50:44;5.33;;;5.32;;
71176;SDS011;58877;51.992;4.504;2024-02-26T10:53:31;5.42;;;5.38;;
71176;SDS011;58877;51.992;4.504;2024-02-26T10:56:10;5.33;;;5.27;;
71176;SDS011;58877;51.992;4.504;2024-02-26T10:58:49;5.11;;;5.10;;
71176;SDS011;58877;51.992;4.504;2024-02-26T11:01:16;5.66;;;5.63;;
71176;SDS011;58877;51.992;4.504;2024-02-26T11:03:44;5.14;;;5.14;;
71176;SDS011;58877;51.992;4.504;2024-02-26T11:06:12;5.16;;;5.15;;
71176;SDS011;58877;51.992;4.504;2024-02-26T11:12:10;4.95;;;4.91;;
71176;SDS011;58877;51.992;4.504;2024-02-26T11:18:07;4.79;;;4.77;;
71176;SDS011;58877;51.992;4.504;2024-02-26T11:21:00;4.98;;;4.93;;
71176;SDS011;58877;51.992;4.504;2024-02-26T11:23:56;4.46;;;4.46;;
71176;SDS011;58877;51.992;4.504;2024-02-26T11:26:48;4.86;;;4.86;;
71176;SDS011;58877;51.992;4.504;2024-02-26T11:36:20;5.40;;;5.37;;
71176;SDS011;58877;51.992;4.504;2024-02-26T11:39:28;5.72;;;5.63;;
71176;SDS011;58877;51.992;4.504;2024-02-26T11:42:53;4.70;;;4.70;;
71176;SDS011;58877;51.992;4.504;2024-02-26T11:48:28;4.98;;;4.96;;
71176;SDS011;58877;51.992;4.504;2024-02-26T11:50:57;4.80;;;4.80;;
71176;SDS011;58877;51.992;4.504;2024-02-26T11:53:30;4.89;;;4.89;;
71176;SDS011;58877;51.992;4.504;2024-02-26T11:59:13;4.40;;;4.36;;
71176;SDS011;58877;51.992;4.504;2024-02-26T12:02:19;4.55;;;4.53;;
71176;SDS011;58877;51.992;4.504;2024-02-26T12:05:32;4.18;;;4.16;;
71176;SDS011;58877;51.992;4.504;2024-02-26T12:08:04;4.47;;;4.47;;
71176;SDS011;58877;51.992;4.504;2024-02-26T12:10:55;4.05;;;4.05;;
71176;SDS011;58877;51.992;4.504;2024-02-26T12:13:37;3.86;;;3.86;;
71176;SDS011;58877;51.992;4.504;2024-02-26T12:16:32;3.95;;;3.95;;
71176;SDS011;58877;51.992;4.504;2024-02-26T12:19:34;3.96;;;3.94;;
71176;SDS011;58877;51.992;4.504;2024-02-26T12:25:43;3.81;;;3.78;;
71176;SDS011;58877;51.992;4.504;2024-02-26T12:28:36;3.22;;;3.21;;
71176;SDS011;58877;51.992;4.504;2024-02-26T12:31:18;3.48;;;3.46;;
71176;SDS011;58877;51.992;4.504;2024-02-26T12:37:02;3.59;;;3.57;;
71176;SDS011;58877;51.992;4.504;2024-02-26T12:39:39;3.16;;;3.16;;
71176;SDS011;58877;51.992;4.504;2024-02-26T12:42:18;3.24;;;3.24;;
71176;SDS011;58877;51.992;4.504;2024-02-26T12:45:02;3.03;;;3.03;;
71176;SDS011;58877;51.992;4.504;2024-02-26T12:47:44;3.16;;;3.16;;
71176;SDS011;58877;51.992;4.504;2024-02-26T12:50:17;3.24;;;3.24;;
71176;SDS011;58877;51.992;4.504;2024-02-26T12:52:47;3.19;;;3.19;;
71176;SDS011;58877;51.992;4.504;2024-02-26T12:55:19;3.25;;;3.25;;
71176;SDS011;58877;51.992;4.504;2024-02-26T12:57:46;2.87;;;2.87;;
71176;SDS011;58877;51.992;4.504;2024-02-26T13:00:25;2.79;;;2.79;;
71176;SDS011;58877;51.992;4.504;2024-02-26T13:02:56;3.21;;;3.21;;
71176;SDS011;58877;51.992;4.504;2024-02-26T13:05:28;2.94;;;2.94;;
71176;SDS011;58877;51.992;4.504;2024-02-26T13:07:54;2.72;;;2.72;;
71176;SDS011;58877;51.992;4.504;2024-02-26T13:10:20;3.27;;;3.27;;
71176;SDS011;58877;51.992;4.504;2024-02-26T13:12:49;3.01;;;3.01;;
71176;SDS011;58877;51.992;4.504;2024-02-26T13:15:16;2.77;;;2.77;;
71176;SDS011;58877;51.992;4.504;2024-02-26T13:17:52;2.66;;;2.66;;
71176;SDS011;58877;51.992;4.504;2024-02-26T13:20:28;2.83;;;2.83;;
71176;SDS011;58877;51.992;4.504;2024-02-26T13:23:02;2.87;;;2.87;;
71176;SDS011;58877;51.992;4.504;2024-02-26T13:25:30;2.87;;;2.87;;
71176;SDS011;58877;51.992;4.504;2024-02-26T13:30:35;2.79;;;2.78;;
71176;SDS011;58877;51.992;4.504;2024-02-26T13:33:09;2.96;;;2.95;;
71176;SDS011;58877;51.992;4.504;2024-02-26T13:35:37;3.05;;;3.03;;
71176;SDS011;58877;51.992;4.504;2024-02-26T13:38:04;2.72;;;2.72;;
71176;SDS011;58877;51.992;4.504;2024-02-26T13:40:31;2.81;;;2.78;;
71176;SDS011;58877;51.992;4.504;2024-02-26T13:42:57;2.74;;;2.72;;
71176;SDS011;58877;51.992;4.504;2024-02-26T13:45:23;2.88;;;2.88;;
71176;SDS011;58877;51.992;4.504;2024-02-26T13:47:49;2.69;;;2.69;;
71176;SDS011;58877;51.992;4.504;2024-02-26T13:50:14;2.64;;;2.64;;
71176;SDS011;58877;51.992;4.504;2024-02-26T13:52:42;2.63;;;2.62;;
71176;SDS011;58877;51.992;4.504;2024-02-26T13:58:09;2.71;;;2.69;;
71176;SDS011;58877;51.992;4.504;2024-02-26T14:00:48;2.82;;;2.79;;
71176;SDS011;58877;51.992;4.504;2024-02-26T14:03:18;2.96;;;2.89;;
71176;SDS011;58877;51.992;4.504;2024-02-26T14:05:50;2.75;;;2.71;;
71176;SDS011;58877;51.992;4.504;2024-02-26T14:08:16;2.41;;;2.39;;
71176;SDS011;58877;51.992;4.504;2024-02-26T14:10:53;2.20;;;2.19;;
71176;SDS011;58877;51.992;4.504;2024-02-26T14:13:27;2.53;;;2.51;;
71176;SDS011;58877;51.992;4.504;2024-02-26T14:15:56;2.45;;;2.44;;
71176;SDS011;58877;51.992;4.504;2024-02-26T14:18:22;2.29;;;2.29;;
71176;SDS011;58877;51.992;4.504;2024-02-26T14:21:02;2.22;;;2.22;;
71176;SDS011;58877;51.992;4.504;2024-02-26T14:23:28;2.28;;;2.28;;
71176;SDS011;58877;51.992;4.504;2024-02-26T14:25:56;2.33;;;2.33;;
71176;SDS011;58877;51.992;4.504;2024-02-26T14:28:25;2.08;;;2.08;;
71176;SDS011;58877;51.992;4.504;2024-02-26T14:30:53;2.18;;;2.18;;
71176;SDS011;58877;51.992;4.504;2024-02-26T14:33:19;2.49;;;2.49;;
71176;SDS011;58877;51.992;4.504;2024-02-26T14:35:48;2.55;;;2.55;;
71176;SDS011;58877;51.992;4.504;2024-02-26T14:38:13;2.56;;;2.56;;
71176;SDS011;58877;51.992;4.504;2024-02-26T14:40:40;2.29;;;2.29;;
71176;SDS011;58877;51.992;4.504;2024-02-26T14:43:06;2.42;;;2.42;;
71176;SDS011;58877;51.992;4.504;2024-02-26T14:45:35;2.43;;;2.43;;
71176;SDS011;58877;51.992;4.504;2024-02-26T14:48:00;2.76;;;2.76;;
71176;SDS011;58877;51.992;4.504;2024-02-26T14:50:26;2.81;;;2.81;;
71176;SDS011;58877;51.992;4.504;2024-02-26T14:52:52;2.67;;;2.67;;
71176;SDS011;58877;51.992;4.504;2024-02-26T14:55:18;2.81;;;2.81;;
71176;SDS011;58877;51.992;4.504;2024-02-26T14:57:44;3.18;;;3.18;;
71176;SDS011;58877;51.992;4.504;2024-02-26T15:00:10;3.01;;;3.01;;
71176;SDS011;58877;51.992;4.504;2024-02-26T15:02:36;2.93;;;2.93;;
71176;SDS011;58877;51.992;4.504;2024-02-26T15:05:02;3.09;;;3.09;;
71176;SDS011;58877;51.992;4.504;2024-02-26T15:07:28;3.22;;;3.22;;
71176;SDS011;58877;51.992;4.504;2024-02-26T15:09:54;3.05;;;3.05;;
71176;SDS011;58877;51.992;4.504;2024-02-26T15:12:22;3.06;;;3.06;;
71176;SDS011;58877;51.992;4.504;2024-02-26T15:14:57;3.21;;;3.20;;
71176;SDS011;58877;51.992;4.504;2024-02-26T15:17:23;2.71;;;2.69;;
71176;SDS011;58877;51.992;4.504;2024-02-26T15:19:49;3.29;;;3.25;;
71176;SDS011;58877;51.992;4.504;2024-02-26T15:22:15;3.30;;;3.26;;
71176;SDS011;58877;51.992;4.504;2024-02-26T15:24:43;3.10;;;3.08;;
71176;SDS011;58877;51.992;4.504;2024-02-26T15:27:09;3.13;;;3.12;;
71176;SDS011;58877;51.992;4.504;2024-02-26T15:29:36;3.03;;;3.01;;
71176;SDS011;58877;51.992;4.504;2024-02-26T15:32:02;3.17;;;3.15;;
71176;SDS011;58877;51.992;4.504;2024-02-26T15:34:31;2.92;;;2.89;;
71176;SDS011;58877;51.992;4.504;2024-02-26T15:36:56;2.89;;;2.87;;
71176;SDS011;58877;51.992;4.504;2024-02-26T15:39:22;3.06;;;3.05;;
71176;SDS011;58877;51.992;4.504;2024-02-26T15:41:48;3.24;;;3.23;;
71176;SDS011;58877;51.992;4.504;2024-02-26T15:44:15;3.38;;;3.38;;
71176;SDS011;58877;51.992;4.504;2024-02-26T15:46:41;2.98;;;2.98;;
71176;SDS011;58877;51.992;4.504;2024-02-26T15:49:07;3.65;;;3.64;;
71176;SDS011;58877;51.992;4.504;2024-02-26T15:51:33;3.31;;;3.30;;
71176;SDS011;58877;51.992;4.504;2024-02-26T15:53:58;3.54;;;3.54;;
71176;SDS011;58877;51.992;4.504;2024-02-26T15:56:24;3.28;;;3.26;;
71176;SDS011;58877;51.992;4.504;2024-02-26T15:58:51;3.15;;;3.11;;
71176;SDS011;58877;51.992;4.504;2024-02-26T16:01:17;3.12;;;3.10;;
71176;SDS011;58877;51.992;4.504;2024-02-26T16:03:44;3.42;;;3.42;;
71176;SDS011;58877;51.992;4.504;2024-02-26T16:06:21;3.26;;;3.26;;
71176;SDS011;58877;51.992;4.504;2024-02-26T16:08:56;3.62;;;3.62;;